createdAt,value
2023-04-29T00:02:45.419Z,99917.78
2023-04-29T00:07:46.833Z,99917.41
2023-04-29T00:12:48.703Z,99930.84
2023-04-29T00:17:50.831Z,99939.56
2023-04-29T00:22:52.336Z,99941.41
2023-04-29T00:27:53.734Z,99935.59
2023-04-29T00:32:55.353Z,99933.66
2023-04-29T00:37:56.807Z,99941.56
2023-04-29T00:42:58.167Z,99936.00
2023-04-29T00:47:59.558Z,99931.25
2023-04-29T00:53:01.318Z,99930.19
2023-04-29T00:58:04.099Z,99931.19
2023-04-29T01:03:05.883Z,99927.47
2023-04-29T01:08:37.851Z,99932.06
2023-04-29T01:13:54.390Z,99933.66
2023-04-29T01:19:01.910Z,99933.88
2023-04-29T01:24:03.317Z,99931.94
2023-04-29T01:29:32.460Z,99929.63
2023-04-29T01:34:49.014Z,99927.94
2023-04-29T01:40:01.623Z,99929.75
2023-04-29T01:45:06.930Z,99927.94
2023-04-29T01:50:08.578Z,99925.50
2023-04-29T01:55:10.990Z,99925.66
2023-04-29T02:00:13.333Z,99931.06
2023-04-29T02:05:14.765Z,99936.72
2023-04-29T02:10:16.240Z,99940.25
2023-04-29T02:15:17.829Z,99943.63
2023-04-29T02:20:19.227Z,99930.91
2023-04-29T02:25:20.923Z,99935.19
2023-04-29T02:30:22.355Z,99940.81
2023-04-29T02:35:23.709Z,99944.75
2023-04-29T02:40:26.371Z,99946.41
2023-04-29T02:45:27.699Z,99955.63
2023-04-29T02:50:29.069Z,99959.16
2023-04-29T02:55:30.437Z,99951.47
2023-04-29T03:00:31.817Z,99964.00
2023-04-29T03:05:33.614Z,99955.25
2023-04-29T03:10:34.972Z,99958.59
2023-04-29T03:15:36.873Z,99965.09
2023-04-29T03:20:38.364Z,99958.88
2023-04-29T03:25:40.560Z,99963.47
2023-04-29T03:30:42.206Z,99959.94
2023-04-29T03:35:43.843Z,99958.34
2023-04-29T03:40:45.546Z,99958.34
2023-04-29T03:45:47.018Z,99966.88
2023-04-29T03:50:48.521Z,99973.31
2023-04-29T03:55:49.874Z,99966.69
2023-04-29T04:00:51.288Z,99984.97
2023-04-29T04:05:52.607Z,99993.31
2023-04-29T04:10:54.141Z,100009.72
2023-04-29T04:15:55.489Z,100015.34
2023-04-29T04:20:56.841Z,100031.38
2023-04-29T04:25:58.194Z,100050.31
2023-04-29T04:30:59.592Z,100048.66
2023-04-29T04:36:00.989Z,100051.13
2023-04-29T04:41:02.554Z,100058.00
2023-04-29T04:46:11.839Z,100055.28
2023-04-29T04:51:13.661Z,100055.94
2023-04-29T04:56:15.050Z,100061.53
2023-04-29T05:01:16.501Z,100065.91
2023-04-29T05:06:17.998Z,100073.16
2023-04-29T05:11:20.878Z,100089.84
2023-04-29T05:16:22.268Z,100101.66
2023-04-29T05:21:23.703Z,100101.47
2023-04-29T05:26:25.019Z,100110.47
2023-04-29T05:31:28.001Z,100114.63
2023-04-29T05:36:29.757Z,100127.28
2023-04-29T05:41:31.118Z,100139.97
2023-04-29T05:46:32.554Z,100151.41
2023-04-29T05:51:33.922Z,100155.78
2023-04-29T05:56:35.519Z,100161.41
2023-04-29T06:01:36.878Z,100171.00
2023-04-29T06:06:38.585Z,100171.41
2023-04-29T06:11:39.926Z,100188.28
2023-04-29T06:16:41.329Z,100192.22
2023-04-29T06:21:42.727Z,100207.03
2023-04-29T06:26:44.171Z,100209.34
2023-04-29T06:31:45.643Z,100205.19
2023-04-29T06:36:47.122Z,100220.16
2023-04-29T06:41:48.433Z,100228.06
2023-04-29T06:46:49.807Z,100229.09
2023-04-29T06:51:51.148Z,100224.53
2023-04-29T06:56:52.578Z,100235.16
2023-04-29T07:01:54.104Z,100244.31
2023-04-29T07:06:55.907Z,100251.00
2023-04-29T07:11:57.243Z,100250.97
2023-04-29T07:16:58.772Z,100254.72
2023-04-29T07:22:00.192Z,100260.34
2023-04-29T07:27:01.536Z,100268.28
2023-04-29T07:32:02.918Z,100269.50
2023-04-29T07:37:04.248Z,100278.03
2023-04-29T07:42:05.582Z,100280.78
2023-04-29T07:47:06.963Z,100282.88
2023-04-29T07:52:09.954Z,100280.56
2023-04-29T07:57:11.380Z,100300.78
2023-04-29T08:02:13.742Z,100304.09
2023-04-29T08:07:15.093Z,100311.34
2023-04-29T08:12:16.516Z,100309.50
2023-04-29T08:17:17.850Z,100319.09
2023-04-29T08:22:19.237Z,100325.31
2023-04-29T08:27:21.782Z,100330.53
2023-04-29T08:32:23.251Z,100340.06
2023-04-29T08:37:24.607Z,100339.06
2023-04-29T08:42:36.863Z,100345.09
2023-04-29T08:47:38.836Z,100351.13
2023-04-29T08:52:40.669Z,100350.06
2023-04-29T08:57:43.197Z,100349.91
2023-04-29T09:02:50.811Z,100353.91
2023-04-29T09:07:52.861Z,100357.63
2023-04-29T09:13:00.578Z,100359.31
2023-04-29T09:18:02.032Z,100368.50
2023-04-29T09:23:04.597Z,100364.13
2023-04-29T09:28:16.682Z,100371.84
2023-04-29T09:33:18.026Z,100379.13
2023-04-29T09:38:19.588Z,100383.50
2023-04-29T09:43:21.444Z,100388.72
2023-04-29T09:48:32.073Z,100391.81
2023-04-29T09:53:37.971Z,100399.31
2023-04-29T09:58:40.131Z,100393.06
2023-04-29T10:03:42.804Z,100391.56
2023-04-29T10:08:46.140Z,100396.38
2023-04-29T10:13:50.256Z,100394.94
2023-04-29T10:18:56.326Z,100400.59
2023-04-29T10:23:59.334Z,100401.44
2023-04-29T10:29:02.102Z,100392.63
2023-04-29T10:34:03.457Z,100386.22
2023-04-29T10:39:09.537Z,100383.25
2023-04-29T10:44:11.381Z,100389.28
2023-04-29T10:49:12.813Z,100387.38
2023-04-29T10:54:20.270Z,100385.47
2023-04-29T10:59:33.568Z,100395.47
2023-04-29T11:04:34.990Z,100401.31
2023-04-29T11:09:38.596Z,100396.69
2023-04-29T11:14:49.615Z,100399.19
2023-04-29T11:19:52.217Z,100400.00
2023-04-29T11:25:01.927Z,100395.63
2023-04-29T11:30:06.458Z,100393.69
2023-04-29T11:35:11.941Z,100396.59
2023-04-29T11:40:14.385Z,100393.78
2023-04-29T11:45:18.913Z,100399.78
2023-04-29T11:50:20.923Z,100410.56
2023-04-29T11:55:22.414Z,100422.50
2023-04-29T12:00:24.619Z,100408.50
2023-04-29T12:05:26.629Z,100419.97
2023-04-29T12:10:28.188Z,100426.38
2023-04-29T12:15:30.978Z,100428.13
2023-04-29T12:20:32.596Z,100432.22
2023-04-29T12:25:34.085Z,100423.38
2023-04-29T12:30:36.252Z,100421.00
2023-04-29T12:35:37.594Z,100427.59
2023-04-29T12:40:38.927Z,100431.41
2023-04-29T12:45:40.754Z,100431.56
2023-04-29T12:50:42.239Z,100438.25
2023-04-29T12:55:44.020Z,100431.41
2023-04-29T13:00:45.507Z,100440.47
2023-04-29T13:05:48.629Z,100445.31
2023-04-29T13:10:50.093Z,100440.16
2023-04-29T13:15:51.577Z,100445.56
2023-04-29T13:20:53.736Z,100455.59
2023-04-29T13:25:55.440Z,100450.28
2023-04-29T13:30:56.984Z,100448.25
2023-04-29T13:35:58.402Z,100452.47
2023-04-29T13:40:59.948Z,100457.22
2023-04-29T13:46:01.365Z,100456.00
2023-04-29T14:01:54.626Z,100469.09
2023-04-29T14:06:34.099Z,100472.78
2023-04-29T14:11:36.789Z,100476.16
2023-04-29T14:16:38.467Z,100481.81
2023-04-29T14:21:40.031Z,100476.16
2023-04-29T14:26:41.869Z,100485.97
2023-04-29T14:31:43.381Z,100489.38
2023-04-29T14:36:46.723Z,100495.31
2023-04-29T14:41:48.663Z,100496.28
2023-04-29T14:46:50.147Z,100497.13
2023-04-29T14:51:51.630Z,100507.91
2023-04-29T14:56:53.070Z,100518.31
2023-04-29T15:01:54.443Z,100520.72
2023-04-29T15:06:57.713Z,100518.69
2023-04-29T15:11:59.006Z,100533.38
2023-04-29T15:17:00.355Z,100532.78
2023-04-29T15:22:01.659Z,100539.72
2023-04-29T15:27:03.334Z,100540.50
2023-04-29T15:32:04.909Z,100546.81
2023-04-29T15:37:06.391Z,100551.22
2023-04-29T15:42:09.376Z,100561.44
2023-04-29T15:47:10.755Z,100566.25
2023-04-29T15:52:12.062Z,100562.91
2023-04-29T15:57:14.690Z,100565.19
2023-04-29T16:02:16.281Z,100573.97
2023-04-29T16:07:18.209Z,100568.94
2023-04-29T16:12:20.639Z,100567.09
2023-04-29T16:17:22.037Z,100576.06
2023-04-29T16:22:23.558Z,100577.28
2023-04-29T16:27:24.942Z,100571.25
2023-04-29T16:32:28.469Z,100578.34
2023-04-29T16:37:29.971Z,100585.66
2023-04-29T16:42:31.481Z,100580.22
2023-04-29T16:47:32.969Z,100584.41
2023-04-29T16:52:35.165Z,100578.34
2023-04-29T16:57:36.576Z,100586.47
2023-04-29T17:02:40.226Z,100597.69
2023-04-29T17:07:42.593Z,100599.59
2023-04-29T17:12:44.117Z,100598.34
2023-04-29T17:17:46.531Z,100607.53
2023-04-29T17:22:48.004Z,100611.69
2023-04-29T17:27:49.745Z,100608.75
2023-04-29T17:32:51.275Z,100613.97
2023-04-29T17:37:52.607Z,100612.94
2023-04-29T17:42:54.036Z,100620.44
2023-04-29T17:47:55.624Z,100642.53
2023-04-29T17:52:56.946Z,100634.00
2023-04-29T17:57:58.452Z,100633.56
2023-04-29T18:02:59.893Z,100638.94
2023-04-29T18:08:01.337Z,100642.72
2023-04-29T18:13:03.337Z,100642.44
2023-04-29T18:18:04.810Z,100646.97
2023-04-29T18:23:06.511Z,100646.97
2023-04-29T18:33:15.763Z,100660.72
2023-04-29T18:38:17.466Z,100667.19
2023-04-29T18:43:24.202Z,100656.78
2023-04-29T18:48:25.681Z,100667.84
2023-04-29T18:53:27.080Z,100663.47
2023-04-29T18:58:28.496Z,100670.34
2023-04-29T19:03:30.405Z,100673.88
2023-04-29T19:08:31.745Z,100673.63
2023-04-29T19:13:33.118Z,100680.72
2023-04-29T19:18:34.495Z,100688.78
2023-04-29T19:23:35.857Z,100697.28
2023-04-29T19:28:37.224Z,100690.59
2023-04-29T19:33:38.657Z,100696.19
2023-04-29T19:38:40.344Z,100710.38
2023-04-29T19:43:41.718Z,100708.97
2023-04-29T19:48:43.111Z,100704.78
2023-04-29T19:53:44.574Z,100715.16
2023-04-29T19:58:46.149Z,100716.03
2023-04-29T20:03:47.530Z,100723.75
2023-04-29T20:08:48.904Z,100724.56
2023-04-29T20:13:50.437Z,100721.66
2023-04-29T20:18:51.822Z,100728.53
2023-04-29T20:23:53.608Z,100729.34
2023-04-29T20:28:54.984Z,100732.91
2023-04-29T20:33:56.352Z,100732.06
2023-04-29T20:38:57.712Z,100739.34
2023-04-29T20:43:59.079Z,100734.34
2023-04-29T20:49:00.959Z,100733.47
2023-04-29T20:54:02.740Z,100734.69
2023-04-29T20:59:04.261Z,100730.47
2023-04-29T21:04:05.957Z,100734.44
2023-04-29T21:09:08.874Z,100734.63
2023-04-29T21:14:10.264Z,100745.91
2023-04-29T21:19:11.676Z,100744.25
2023-04-29T21:24:13.029Z,100744.44
2023-04-29T21:29:14.408Z,100744.03
2023-04-29T21:34:16.258Z,100743.84
2023-04-29T21:39:17.686Z,100744.47
2023-04-29T21:44:19.066Z,100751.31
2023-04-29T21:49:20.935Z,100754.66
2023-04-29T21:54:22.587Z,100752.78
2023-04-29T21:59:24.103Z,100756.13
2023-04-29T22:04:25.942Z,100760.34
2023-04-29T22:09:27.321Z,100761.56
2023-04-29T22:14:28.891Z,100760.72
2023-04-29T22:19:30.323Z,100764.69
2023-04-29T22:24:31.982Z,100782.81
2023-04-29T22:29:33.380Z,100788.34
2023-04-29T22:34:34.747Z,100782.50
2023-04-29T22:39:36.065Z,100792.03
2023-04-29T22:44:37.473Z,100797.00
2023-04-29T22:49:38.865Z,100796.16
2023-04-29T22:54:40.241Z,100793.19
2023-04-29T22:59:41.554Z,100801.97
2023-04-29T23:04:42.990Z,100799.44
2023-04-29T23:09:44.339Z,100799.63
2023-04-29T23:14:46.185Z,100796.91
2023-04-29T23:19:47.506Z,100802.31
2023-04-29T23:24:49.266Z,100802.09
2023-04-29T23:29:51.048Z,100803.09
2023-04-29T23:34:52.358Z,100801.44
2023-04-29T23:39:54.015Z,100807.41
2023-04-29T23:44:56.279Z,100804.94
2023-04-29T23:49:57.572Z,100806.78
2023-04-29T23:54:59.392Z,100801.75
